Time;durP1;ratioP1;P1;durP2;ratioP2;P2;SDS_P1;SDS_P2;PMS_P1;PMS_P2;Temp;Humidity;BMP_temperature;BMP_pressure;BME280_temperature;BME280_humidity;BME280_pressure;Samples;Min_cycle;Max_cycle;Signal;HPM_P1;HPM_P2
2023/09/04 00:00:05;;;;;;;11.85;6.80;;;17.70;99.90;;;;;;4990277;28;20806;-45
2023/09/04 00:02:31;;;;;;;12.13;6.95;;;17.70;99.90;;;;;;4990255;28;20704;-46
2023/09/04 00:04:56;;;;;;;11.13;7.03;;;17.70;99.90;;;;;;4990401;28;20018;-47
2023/09/04 00:07:22;;;;;;;13.38;6.75;;;17.70;99.90;;;;;;4992734;28;20050;-47
2023/09/04 00:09:48;;;;;;;13.77;7.32;;;17.70;99.90;;;;;;4993910;28;20077;-52
2023/09/04 00:12:13;;;;;;;10.15;6.32;;;17.70;99.90;;;;;;4994058;28;20026;-45
2023/09/04 00:14:39;;;;;;;14.52;7.65;;;17.70;99.90;;;;;;4994002;28;20384;-52
2023/09/04 00:17:05;;;;;;;13.38;7.20;;;17.60;99.90;;;;;;4993619;28;20129;-45
2023/09/04 00:19:32;;;;;;;14.57;7.97;;;17.70;99.90;;;;;;4993916;28;20034;-49
2023/09/04 00:21:58;;;;;;;11.93;7.28;;;17.70;99.90;;;;;;4993821;28;20029;-53
2023/09/04 00:24:23;;;;;;;14.07;7.50;;;17.70;99.90;;;;;;4993564;28;20030;-48
2023/09/04 00:26:49;;;;;;;14.45;7.55;;;17.80;99.90;;;;;;4992285;28;20030;-48
2023/09/04 00:29:15;;;;;;;17.25;8.10;;;17.80;99.90;;;;;;4993681;28;20514;-47
2023/09/04 00:31:40;;;;;;;14.48;7.85;;;17.80;99.90;;;;;;4993556;28;20168;-46
2023/09/04 00:34:06;;;;;;;14.27;8.35;;;17.80;99.90;;;;;;4993638;28;20031;-51
2023/09/04 00:36:32;;;;;;;12.13;7.05;;;17.80;99.90;;;;;;4993349;28;20041;-51
2023/09/04 00:38:57;;;;;;;15.07;7.88;;;17.80;99.90;;;;;;4993386;28;20097;-48
2023/09/04 00:41:23;;;;;;;17.83;9.13;;;17.80;99.90;;;;;;4993266;28;20025;-49
2023/09/04 00:43:48;;;;;;;15.98;8.65;;;17.80;99.90;;;;;;4993294;28;20081;-49
2023/09/04 00:46:14;;;;;;;13.32;8.48;;;17.80;99.90;;;;;;4993495;28;20036;-57
2023/09/04 00:48:41;;;;;;;15.68;9.50;;;17.80;99.90;;;;;;4993003;28;20030;-48
2023/09/04 00:51:07;;;;;;;17.08;8.80;;;17.80;99.90;;;;;;4992723;28;20030;-49
2023/09/04 00:53:33;;;;;;;17.17;9.10;;;17.80;99.90;;;;;;4992762;28;20494;-47
2023/09/04 00:56:02;;;;;;;19.15;9.70;;;17.80;99.90;;;;;;4993214;28;20038;-56
2023/09/04 00:58:28;;;;;;;16.95;8.45;;;17.70;99.90;;;;;;4992914;28;20113;-54
2023/09/04 01:00:54;;;;;;;18.27;9.52;;;17.80;99.90;;;;;;4993102;28;20102;-50
2023/09/04 01:03:21;;;;;;;18.27;9.95;;;17.70;99.90;;;;;;4992530;28;20038;-50
2023/09/04 01:05:47;;;;;;;21.92;10.80;;;17.70;99.90;;;;;;4992651;28;20422;-49
2023/09/04 01:08:14;;;;;;;18.83;10.52;;;17.70;99.90;;;;;;4992674;28;20070;-46
2023/09/04 01:11:09;;;;;;;18.65;10.15;;;17.70;99.90;;;;;;4992838;28;20053;-49
2023/09/04 01:13:45;;;;;;;22.48;12.48;;;17.80;99.90;;;;;;4992770;28;20030;-51
2023/09/04 01:16:11;;;;;;;27.77;12.10;;;17.80;99.90;;;;;;4992636;28;20026;-49
2023/09/04 01:18:38;;;;;;;24.58;13.63;;;17.80;99.90;;;;;;4992144;28;20534;-51
2023/09/04 01:21:05;;;;;;;23.52;12.27;;;17.80;99.90;;;;;;4992536;28;20037;-49
2023/09/04 01:23:32;;;;;;;24.80;12.55;;;17.80;99.90;;;;;;4992379;28;20510;-50
2023/09/04 01:26:11;;;;;;;23.73;12.23;;;17.80;99.90;;;;;;4992362;28;20510;-43
2023/09/04 01:28:47;;;;;;;24.33;12.70;;;17.80;99.90;;;;;;4992366;28;20058;-50
2023/09/04 01:31:26;;;;;;;25.80;14.10;;;17.80;99.90;;;;;;4992174;28;20026;-58
2023/09/04 01:34:03;;;;;;;23.67;14.13;;;17.80;99.90;;;;;;4992181;28;20057;-54
2023/09/04 01:36:31;;;;;;;21.30;12.27;;;17.80;99.90;;;;;;4992053;28;20042;-49
2023/09/04 01:38:57;;;;;;;24.23;13.48;;;17.80;99.90;;;;;;4992177;28;20475;-50
2023/09/04 01:41:23;;;;;;;27.40;14.45;;;17.80;99.90;;;;;;4992088;28;20085;-49
2023/09/04 01:43:49;;;;;;;27.45;14.75;;;17.80;99.90;;;;;;4992289;28;20037;-46
2023/09/04 01:46:15;;;;;;;26.52;13.95;;;17.80;99.90;;;;;;4991977;28;20434;-49
2023/09/04 01:48:40;;;;;;;24.40;13.50;;;17.80;99.90;;;;;;4974436;28;20022;-45
2023/09/04 01:51:06;;;;;;;26.02;13.05;;;17.80;99.90;;;;;;4991894;28;20031;-44
2023/09/04 01:53:32;;;;;;;20.98;13.18;;;17.80;99.90;;;;;;4991757;28;20161;-42
2023/09/04 01:55:58;;;;;;;25.50;12.93;;;17.80;99.90;;;;;;4991808;28;20614;-44
2023/09/04 01:58:24;;;;;;;27.52;14.63;;;17.80;99.90;;;;;;4991558;28;20433;-44
2023/09/04 02:00:50;;;;;;;23.23;14.25;;;17.80;99.90;;;;;;4991676;28;20107;-47
2023/09/04 02:03:16;;;;;;;26.17;13.65;;;17.80;99.90;;;;;;4991480;28;20106;-44
2023/09/04 02:05:42;;;;;;;26.17;13.18;;;17.80;99.90;;;;;;4991521;28;20029;-50
2023/09/04 02:08:08;;;;;;;24.65;12.68;;;17.80;99.90;;;;;;4991570;28;20053;-45
2023/09/04 02:10:37;;;;;;;24.65;12.50;;;17.80;99.90;;;;;;4991034;28;20022;-47
2023/09/04 02:13:03;;;;;;;26.50;13.43;;;17.70;99.90;;;;;;4991570;28;20069;-50
2023/09/04 02:15:30;;;;;;;24.50;12.02;;;17.80;99.90;;;;;;4991261;28;20031;-51
2023/09/04 02:17:55;;;;;;;23.90;12.50;;;17.80;99.90;;;;;;4991168;28;20056;-51
2023/09/04 02:20:21;;;;;;;20.95;11.65;;;17.80;99.90;;;;;;4991171;28;20045;-53
2023/09/04 02:22:47;;;;;;;26.80;12.30;;;17.80;99.90;;;;;;4991123;28;20399;-50
2023/09/04 02:25:13;;;;;;;22.08;11.48;;;17.80;99.90;;;;;;4991256;28;20022;-54
2023/09/04 02:27:39;;;;;;;25.02;11.93;;;17.70;99.90;;;;;;4991359;28;20022;-45
2023/09/04 02:30:07;;;;;;;27.58;12.63;;;17.80;99.90;;;;;;4990591;28;20560;-50
2023/09/04 02:32:33;;;;;;;21.25;12.07;;;17.80;99.90;;;;;;4991025;28;20058;-45
2023/09/04 02:34:59;;;;;;;21.13;11.52;;;17.70;99.90;;;;;;4991127;28;20035;-47
2023/09/04 02:37:26;;;;;;;22.40;11.85;;;17.70;99.90;;;;;;4991183;28;20034;-52
2023/09/04 02:39:51;;;;;;;25.60;11.50;;;17.70;99.90;;;;;;4990959;28;20022;-49
2023/09/04 02:42:17;;;;;;;23.15;11.63;;;17.70;99.90;;;;;;4991148;28;20046;-49
2023/09/04 02:44:43;;;;;;;23.35;12.88;;;17.70;99.90;;;;;;4990938;28;20046;-50
2023/09/04 02:47:08;;;;;;;26.80;12.52;;;17.70;99.90;;;;;;4990835;28;20030;-54
2023/09/04 02:49:34;;;;;;;24.05;11.98;;;17.70;99.90;;;;;;4990806;28;20022;-50
2023/09/04 02:52:00;;;;;;;22.88;12.27;;;17.70;99.90;;;;;;4990657;28;20037;-47
2023/09/04 02:54:25;;;;;;;25.48;12.48;;;17.70;99.90;;;;;;4990658;28;20112;-50
2023/09/04 02:56:51;;;;;;;25.17;11.85;;;17.70;99.90;;;;;;4990611;28;20038;-46
2023/09/04 02:59:17;;;;;;;23.63;12.43;;;17.70;99.90;;;;;;4990578;28;20046;-52
2023/09/04 03:01:42;;;;;;;23.35;12.15;;;17.70;99.90;;;;;;4989998;28;20026;-50
2023/09/04 03:04:08;;;;;;;29.45;13.35;;;17.70;99.90;;;;;;4990866;28;20129;-49
2023/09/04 03:06:33;;;;;;;23.52;12.30;;;17.70;99.90;;;;;;4990662;28;20045;-53
2023/09/04 03:08:59;;;;;;;24.98;12.35;;;17.70;99.90;;;;;;4990462;28;20023;-45
2023/09/04 03:11:25;;;;;;;26.20;12.70;;;17.70;99.90;;;;;;4990575;28;20412;-51
2023/09/04 03:13:50;;;;;;;24.40;12.00;;;17.70;99.90;;;;;;4990519;28;20101;-48
2023/09/04 03:16:16;;;;;;;22.25;12.13;;;17.70;99.90;;;;;;4990437;28;20022;-48
2023/09/04 03:18:41;;;;;;;26.27;12.60;;;17.70;99.90;;;;;;4990445;28;20030;-57
2023/09/04 03:21:08;;;;;;;22.38;12.48;;;17.70;99.90;;;;;;4990438;28;20026;-51
2023/09/04 03:23:34;;;;;;;25.10;12.93;;;17.70;99.90;;;;;;4990418;28;20033;-53
2023/09/04 03:26:00;;;;;;;28.83;13.00;;;17.60;99.90;;;;;;4990126;28;20022;-52
2023/09/04 03:28:26;;;;;;;24.48;11.85;;;17.60;99.90;;;;;;4989569;28;20077;-47
2023/09/04 03:30:51;;;;;;;24.27;13.00;;;17.60;99.90;;;;;;4989963;28;20018;-54
2023/09/04 03:33:17;;;;;;;25.63;13.57;;;17.60;99.90;;;;;;4990136;28;20035;-49
2023/09/04 03:35:42;;;;;;;30.83;14.13;;;17.60;99.90;;;;;;4990459;28;20464;-45
2023/09/04 03:38:08;;;;;;;29.38;14.65;;;17.60;99.90;;;;;;4990261;28;20034;-44
2023/09/04 03:40:34;;;;;;;25.40;13.52;;;17.50;99.90;;;;;;4990333;28;20029;-48
2023/09/04 03:42:59;;;;;;;31.20;14.13;;;17.60;99.90;;;;;;4994162;28;20113;-48
2023/09/04 03:45:34;;;;;;;31.85;14.48;;;17.50;99.90;;;;;;4993893;28;20493;-47
2023/09/04 03:48:00;;;;;;;29.35;14.25;;;17.60;99.90;;;;;;4994144;28;20019;-48
2023/09/04 03:50:26;;;;;;;26.65;13.45;;;17.60;99.90;;;;;;4992737;28;20037;-50
2023/09/04 03:52:51;;;;;;;24.52;13.60;;;17.50;99.90;;;;;;4993836;28;20029;-49
2023/09/04 03:55:17;;;;;;;24.63;13.95;;;17.50;99.90;;;;;;4992502;28;20365;-49
2023/09/04 03:57:48;;;;;;;28.65;13.55;;;17.60;99.90;;;;;;4993706;28;20034;-48
2023/09/04 04:00:17;;;;;;;27.23;14.05;;;17.50;99.90;;;;;;4993819;28;20443;-45
2023/09/04 04:02:43;;;;;;;27.63;14.15;;;17.50;99.90;;;;;;4993670;28;20080;-48
2023/09/04 04:05:11;;;;;;;27.48;14.50;;;17.50;99.90;;;;;;4993477;28;20476;-54
2023/09/04 04:07:37;;;;;;;31.75;14.90;;;17.50;99.90;;;;;;4993626;28;20058;-50
2023/09/04 04:10:04;;;;;;;29.00;15.70;;;17.50;99.90;;;;;;4993723;28;20035;-49
2023/09/04 04:12:31;;;;;;;29.30;14.18;;;17.50;99.90;;;;;;4993479;28;20054;-47
2023/09/04 04:15:03;;;;;;;33.42;14.88;;;17.50;99.90;;;;;;4993432;28;20022;-46
2023/09/04 04:17:29;;;;;;;32.72;15.40;;;17.50;99.90;;;;;;4993694;28;20062;-50
2023/09/04 04:19:55;;;;;;;29.50;14.20;;;17.50;99.90;;;;;;4993550;28;20021;-49
2023/09/04 04:22:21;;;;;;;29.20;14.65;;;17.40;99.90;;;;;;4993714;28;20026;-45
2023/09/04 04:24:47;;;;;;;27.40;14.20;;;17.40;99.90;;;;;;4993625;28;20022;-45
2023/09/04 04:27:12;;;;;;;28.20;14.68;;;17.40;99.90;;;;;;4992261;28;20496;-49
2023/09/04 04:29:39;;;;;;;26.00;13.57;;;17.40;99.90;;;;;;4993466;28;20018;-46
2023/09/04 04:32:05;;;;;;;27.95;14.30;;;17.40;99.90;;;;;;4993626;28;20471;-48
2023/09/04 04:34:31;;;;;;;26.42;13.80;;;17.40;99.90;;;;;;4993362;28;20026;-46
2023/09/04 04:36:56;;;;;;;30.35;15.70;;;17.40;99.90;;;;;;4993012;28;20084;-48
2023/09/04 04:39:22;;;;;;;28.67;14.18;;;17.40;99.90;;;;;;4993392;28;20050;-46
2023/09/04 04:41:48;;;;;;;28.17;14.05;;;17.40;99.90;;;;;;4993000;28;20038;-48
2023/09/04 04:44:14;;;;;;;28.02;14.85;;;17.30;99.90;;;;;;4993241;28;20026;-45
2023/09/04 04:46:40;;;;;;;25.88;13.35;;;17.40;99.90;;;;;;4993097;28;20031;-44
2023/09/04 04:49:06;;;;;;;26.77;13.55;;;17.40;99.90;;;;;;4993158;28;20062;-44
2023/09/04 04:51:32;;;;;;;23.45;13.43;;;17.40;99.90;;;;;;4992909;28;20104;-45
2023/09/04 04:53:58;;;;;;;30.75;14.43;;;17.30;99.90;;;;;;4993025;28;20100;-47
2023/09/04 04:56:24;;;;;;;29.58;14.93;;;17.40;99.90;;;;;;4993174;28;20030;-44
2023/09/04 04:58:49;;;;;;;30.45;13.73;;;17.40;99.90;;;;;;4993048;28;20038;-53
2023/09/04 05:01:15;;;;;;;33.72;15.23;;;17.40;99.90;;;;;;4992868;28;20026;-51
2023/09/04 05:03:41;;;;;;;27.10;14.48;;;17.30;99.90;;;;;;4993046;28;20053;-53
2023/09/04 05:06:07;;;;;;;29.45;14.48;;;17.30;99.90;;;;;;4992876;28;20423;-48
2023/09/04 05:08:33;;;;;;;32.58;14.63;;;17.30;99.90;;;;;;4992775;28;20391;-49
2023/09/04 05:11:04;;;;;;;28.00;13.35;;;17.30;99.90;;;;;;4992734;28;20027;-49
2023/09/04 05:13:30;;;;;;;28.25;13.77;;;17.20;99.90;;;;;;4992780;28;20097;-51
2023/09/04 05:15:56;;;;;;;28.08;13.57;;;17.20;99.90;;;;;;4992588;28;20029;-48
2023/09/04 05:18:22;;;;;;;30.08;14.07;;;17.30;99.90;;;;;;4992039;28;20038;-52
2023/09/04 05:20:48;;;;;;;32.00;14.75;;;17.20;99.90;;;;;;4992292;28;20018;-51
2023/09/04 05:23:14;;;;;;;31.58;15.52;;;17.20;99.90;;;;;;4992624;28;20034;-51
2023/09/04 05:25:50;;;;;;;30.88;15.80;;;17.20;99.90;;;;;;4992589;28;20050;-50
2023/09/04 05:28:16;;;;;;;30.27;14.35;;;17.20;99.90;;;;;;4992300;28;20033;-52
2023/09/04 05:30:42;;;;;;;33.03;15.35;;;17.20;99.90;;;;;;4992430;28;20026;-50
2023/09/04 05:33:07;;;;;;;28.40;14.95;;;17.20;99.90;;;;;;4992299;28;20041;-47
2023/09/04 05:35:33;;;;;;;28.77;14.45;;;17.20;99.90;;;;;;4992539;28;20030;-48
2023/09/04 05:37:58;;;;;;;28.15;14.35;;;17.20;99.90;;;;;;4992045;28;20081;-51
2023/09/04 05:40:25;;;;;;;25.25;13.40;;;17.20;99.90;;;;;;4992232;28;20015;-51
2023/09/04 05:42:51;;;;;;;30.95;13.48;;;17.20;99.90;;;;;;4992221;28;20135;-54
2023/09/04 05:45:17;;;;;;;29.42;14.25;;;17.20;99.90;;;;;;4974682;28;20117;-45
2023/09/04 05:47:43;;;;;;;33.33;14.52;;;17.20;99.90;;;;;;4992213;28;20046;-52
2023/09/04 05:50:09;;;;;;;26.80;12.88;;;17.30;99.90;;;;;;4990884;28;20062;-51
2023/09/04 05:52:36;;;;;;;32.53;14.27;;;17.30;99.90;;;;;;4992058;28;20023;-53
2023/09/04 05:55:02;;;;;;;28.73;13.27;;;17.30;99.90;;;;;;4992161;28;20026;-54
2023/09/04 05:57:28;;;;;;;26.25;12.82;;;17.30;99.90;;;;;;4991758;28;20037;-45
2023/09/04 05:59:54;;;;;;;26.00;13.15;;;17.30;99.90;;;;;;4991893;28;20076;-45
2023/09/04 06:02:19;;;;;;;26.10;13.35;;;17.40;99.90;;;;;;4991657;28;20037;-47
2023/09/04 06:04:45;;;;;;;26.30;12.93;;;17.40;99.90;;;;;;4991113;28;20026;-49
2023/09/04 06:07:11;;;;;;;24.65;12.15;;;17.40;99.90;;;;;;4991576;28;20054;-46
2023/09/04 06:09:38;;;;;;;25.52;12.55;;;17.40;99.90;;;;;;4991877;28;20015;-50
2023/09/04 06:12:11;;;;;;;24.67;13.02;;;17.50;99.90;;;;;;4991790;28;20109;-50
2023/09/04 06:14:40;;;;;;;23.70;12.50;;;17.50;99.90;;;;;;4991618;28;20408;-53
2023/09/04 06:17:05;;;;;;;27.00;13.07;;;17.50;99.90;;;;;;4991449;28;20494;-50
2023/09/04 06:19:31;;;;;;;22.88;11.75;;;17.60;99.90;;;;;;4991382;28;20256;-47
2023/09/04 06:21:57;;;;;;;20.85;12.05;;;17.60;99.90;;;;;;4991513;28;20037;-48
2023/09/04 06:24:23;;;;;;;19.95;11.25;;;17.60;99.90;;;;;;4991246;28;20073;-51
2023/09/04 06:26:50;;;;;;;23.58;11.57;;;17.70;99.90;;;;;;4991342;28;20023;-45
2023/09/04 06:29:19;;;;;;;20.92;11.10;;;17.80;99.90;;;;;;4991446;28;20562;-48
2023/09/04 06:31:45;;;;;;;23.00;10.90;;;17.90;99.90;;;;;;4991295;28;20077;-51
2023/09/04 06:34:11;;;;;;;20.30;10.63;;;18.10;99.90;;;;;;4990147;28;20496;-47
2023/09/04 06:36:37;;;;;;;22.88;12.20;;;18.40;99.90;;;;;;4991100;28;20430;-52
2023/09/04 06:39:04;;;;;;;22.45;10.80;;;18.60;99.90;;;;;;4991170;28;20034;-47
2023/09/04 06:41:31;;;;;;;22.50;11.10;;;18.70;99.90;;;;;;4991297;28;20026;-45
2023/09/04 06:43:57;;;;;;;20.63;10.82;;;18.80;99.90;;;;;;4991088;28;20030;-54
2023/09/04 06:46:23;;;;;;;20.15;10.65;;;18.80;99.90;;;;;;4991337;28;20026;-48
2023/09/04 06:48:48;;;;;;;17.52;9.65;;;18.90;99.90;;;;;;4991189;28;20026;-50
2023/09/04 06:51:16;;;;;;;21.02;10.27;;;19.00;99.90;;;;;;4990993;28;20030;-44
2023/09/04 06:53:42;;;;;;;17.35;9.63;;;19.10;99.90;;;;;;4991003;28;20444;-45
2023/09/04 06:56:07;;;;;;;16.88;9.48;;;19.40;99.90;;;;;;4990672;28;20026;-47
2023/09/04 06:58:33;;;;;;;15.25;8.68;;;19.90;99.90;;;;;;4990816;28;20149;-49
2023/09/04 07:01:02;;;;;;;17.95;8.05;;;20.40;99.90;;;;;;4990225;28;20034;-53
2023/09/04 07:03:28;;;;;;;12.95;8.38;;;21.10;99.90;;;;;;4989872;28;20023;-50
2023/09/04 07:05:53;;;;;;;13.35;7.70;;;21.60;99.90;;;;;;4990364;28;20113;-50
2023/09/04 07:08:19;;;;;;;10.70;6.60;;;22.10;99.90;;;;;;4990841;28;20050;-51
2023/09/04 07:10:47;;;;;;;15.80;7.07;;;22.60;99.90;;;;;;4989406;28;20061;-45
2023/09/04 07:13:13;;;;;;;14.63;7.75;;;23.20;99.90;;;;;;4990763;28;20065;-50
2023/09/04 07:15:40;;;;;;;11.93;6.82;;;23.50;99.90;;;;;;4992522;28;20046;-50
2023/09/04 07:18:06;;;;;;;11.45;6.85;;;23.90;99.90;;;;;;4994807;28;20038;-46
2023/09/04 07:20:32;;;;;;;12.73;6.70;;;24.30;99.90;;;;;;4994462;28;20061;-49
2023/09/04 07:22:58;;;;;;;7.97;5.47;;;24.80;99.90;;;;;;4994669;28;20084;-51
2023/09/04 07:25:23;;;;;;;9.20;5.72;;;25.00;99.90;;;;;;4994408;28;20034;-47
2023/09/04 07:27:49;;;;;;;8.77;5.57;;;25.40;99.90;;;;;;4994633;28;20369;-48
2023/09/04 07:30:15;;;;;;;11.68;5.85;;;25.80;99.90;;;;;;4994630;28;20019;-49
2023/09/04 07:32:40;;;;;;;8.65;5.22;;;26.00;99.90;;;;;;4994439;28;20026;-50
2023/09/04 07:35:06;;;;;;;8.70;5.32;;;26.20;99.90;;;;;;4994595;28;20022;-54
2023/09/04 07:37:32;;;;;;;8.50;4.13;;;26.50;99.90;;;;;;4994299;28;20069;-54
2023/09/04 07:39:58;;;;;;;7.40;4.85;;;26.90;99.90;;;;;;4994350;28;20054;-49
2023/09/04 07:42:23;;;;;;;7.53;4.35;;;27.20;99.90;;;;;;4994663;28;20069;-52
2023/09/04 07:44:49;;;;;;;8.45;4.78;;;27.40;99.90;;;;;;4994465;28;20506;-50
2023/09/04 07:47:15;;;;;;;7.57;4.47;;;27.60;99.90;;;;;;4993823;28;20029;-53
2023/09/04 07:49:41;;;;;;;5.78;3.65;;;27.70;99.90;;;;;;4994010;28;20458;-52
2023/09/04 07:52:06;;;;;;;6.50;4.10;;;27.90;99.90;;;;;;4994020;28;20058;-52
2023/09/04 07:54:32;;;;;;;6.97;3.88;;;28.30;99.90;;;;;;4982443;28;20014;-51
2023/09/04 07:57:00;;;;;;;6.55;3.53;;;28.60;99.90;;;;;;4993915;28;20500;-48
2023/09/04 07:59:25;;;;;;;6.22;3.85;;;28.80;99.90;;;;;;4993682;28;20068;-55
2023/09/04 08:01:51;;;;;;;6.38;3.75;;;28.90;99.90;;;;;;4994217;28;20062;-46
2023/09/04 08:04:17;;;;;;;7.35;3.55;;;29.10;99.90;;;;;;4976558;28;20053;-48
2023/09/04 08:06:42;;;;;;;7.60;3.90;;;29.40;99.90;;;;;;4993931;28;20459;-49
2023/09/04 08:09:08;;;;;;;5.72;3.22;;;29.60;99.90;;;;;;4993311;28;20023;-53
2023/09/04 08:11:37;;;;;;;5.35;3.10;;;29.90;99.90;;;;;;4994004;28;20035;-54
2023/09/04 08:14:02;;;;;;;;;;;29.90;99.90;;;;;;4994320;28;20034;-52
2023/09/04 08:16:28;;;;;;;5.72;3.70;;;30.20;99.90;;;;;;4993297;28;19963;-50
2023/09/04 08:18:54;;;;;;;5.18;3.25;;;30.40;99.90;;;;;;4993472;28;20148;-52
2023/09/04 08:21:20;;;;;;;6.03;3.45;;;30.50;99.90;;;;;;4976153;28;20022;-47
2023/09/04 08:23:45;;;;;;;5.30;3.45;;;30.70;99.90;;;;;;4993570;28;20018;-47
2023/09/04 08:26:13;;;;;;;5.50;3.08;;;30.70;99.90;;;;;;4992940;28;20022;-50
2023/09/04 08:28:39;;;;;;;5.47;2.60;;;30.50;99.90;;;;;;4992849;28;20022;-46
2023/09/04 08:31:05;;;;;;;3.97;2.80;;;31.00;99.90;;;;;;4993483;28;20641;-54
2023/09/04 08:33:31;;;;;;;6.72;3.00;;;31.00;99.90;;;;;;4993585;28;20070;-52
2023/09/04 08:35:57;;;;;;;5.45;2.97;;;31.20;99.90;;;;;;4993553;28;20412;-48
2023/09/04 08:38:22;;;;;;;4.25;2.67;;;31.40;99.90;;;;;;4992742;28;20483;-45
2023/09/04 08:40:48;;;;;;;6.57;4.03;;;31.50;99.90;;;;;;4993252;28;20022;-51
2023/09/04 08:43:17;;;;;;;4.40;2.95;;;31.40;99.90;;;;;;4992882;28;20042;-55
2023/09/04 08:45:43;;;;;;;4.38;2.97;;;31.50;99.90;;;;;;4992990;28;20549;-52
2023/09/04 08:48:11;;;;;;;3.20;2.50;;;31.30;99.90;;;;;;4993163;28;20085;-45
2023/09/04 08:50:37;;;;;;;4.40;2.53;;;31.40;99.90;;;;;;4975686;28;20034;-45
2023/09/04 08:53:04;;;;;;;8.70;3.30;;;31.60;99.90;;;;;;4993126;28;20360;-58
2023/09/04 08:55:33;;;;;;;4.38;2.50;;;31.20;99.90;;;;;;4993075;28;20015;-53
2023/09/04 08:58:00;;;;;;;4.10;2.88;;;31.60;99.90;;;;;;4993146;28;20042;-52
2023/09/04 09:00:26;;;;;;;9.00;2.70;;;31.20;99.70;;;;;;4975091;28;20058;-56
2023/09/04 09:02:52;;;;;;;4.25;2.45;;;31.30;99.80;;;;;;4992454;28;20027;-54
2023/09/04 09:05:18;;;;;;;4.78;2.65;;;31.20;99.90;;;;;;4992607;28;20084;-45
2023/09/04 09:07:46;;;;;;;3.67;2.38;;;31.10;99.10;;;;;;4992089;28;20408;-47
2023/09/04 09:10:17;;;;;;;3.88;2.55;;;31.10;99.30;;;;;;4992927;28;20022;-58
2023/09/04 09:12:42;;;;;;;4.40;2.40;;;31.10;99.80;;;;;;4992756;28;20030;-50
2023/09/04 09:15:08;;;;;;;3.17;2.22;;;31.30;98.90;;;;;;4975498;28;20153;-44
2023/09/04 09:17:34;;;;;;;4.35;2.60;;;31.70;99.50;;;;;;4992449;28;20399;-52
2023/09/04 09:19:59;;;;;;;3.97;2.30;;;31.50;97.80;;;;;;4975212;28;20042;-46
2023/09/04 09:22:25;;;;;;;3.22;1.85;;;31.30;98.30;;;;;;4992681;28;20037;-54
2023/09/04 09:24:59;;;;;;;4.63;2.35;;;31.30;98.00;;;;;;4973013;28;20051;-52
2023/09/04 09:27:27;;;;;;;4.68;2.50;;;31.00;98.10;;;;;;4992101;28;20027;-50
2023/09/04 09:29:57;;;;;;;3.60;2.20;;;31.20;98.10;;;;;;4991989;28;20018;-54
2023/09/04 09:32:26;;;;;;;2.53;1.83;;;31.30;98.10;;;;;;4992256;28;20268;-54
2023/09/04 09:34:54;;;;;;;3.47;2.13;;;31.40;98.10;;;;;;4992514;28;20042;-46
2023/09/04 09:37:21;;;;;;;3.22;1.98;;;31.30;98.30;;;;;;4983024;28;20415;-49
2023/09/04 09:39:47;;;;;;;3.28;2.10;;;31.10;97.90;;;;;;4992252;28;20026;-52
2023/09/04 09:42:13;;;;;;;3.28;1.88;;;31.60;98.20;;;;;;4992257;28;20038;-50
2023/09/04 09:44:39;;;;;;;2.70;1.73;;;31.60;98.10;;;;;;4992116;28;20034;-48
2023/09/04 09:47:10;;;;;;;3.88;2.03;;;32.10;99.40;;;;;;4992100;28;20034;-50
2023/09/04 09:49:37;;;;;;;3.25;2.00;;;32.50;98.20;;;;;;4992212;28;20030;-46
2023/09/04 09:52:07;;;;;;;3.22;2.13;;;32.00;97.40;;;;;;4992034;28;20022;-49
2023/09/04 09:54:37;;;;;;;4.32;2.05;;;32.10;98.20;;;;;;4991545;28;20034;-47
2023/09/04 09:57:07;;;;;;;4.53;2.50;;;32.30;96.30;;;;;;4991793;28;20077;-55
2023/09/04 09:59:33;;;;;;;4.05;2.20;;;32.10;96.90;;;;;;4991442;28;20046;-49
2023/09/04 10:02:02;;;;;;;2.65;2.13;;;31.90;96.50;;;;;;4990956;28;20447;-52
2023/09/04 10:04:27;;;;;;;;;;;31.80;97.10;;;;;;4991900;28;20050;-48
2023/09/04 10:06:55;;;;;;;4.25;2.35;;;32.00;98.20;;;;;;4991533;28;20372;-46
2023/09/04 10:09:23;;;;;;;3.95;2.00;;;32.30;96.70;;;;;;4991514;28;20179;-51
2023/09/04 10:12:13;;;;;;;3.05;1.95;;;32.40;96.00;;;;;;4991447;28;20102;-53
2023/09/04 10:14:41;;;;;;;4.35;2.35;;;31.70;97.00;;;;;;4991330;28;20018;-47
2023/09/04 10:17:16;;;;;;;2.80;2.00;;;31.60;96.20;;;;;;4991544;28;20038;-54
2023/09/04 10:19:43;;;;;;;3.33;1.90;;;31.70;96.50;;;;;;4991303;28;20475;-56
2023/09/04 10:22:20;;;;;;;3.40;2.25;;;31.70;95.80;;;;;;4991428;28;20030;-45
2023/09/04 10:25:02;;;;;;;3.05;1.98;;;32.00;96.80;;;;;;4991179;28;20027;-49
2023/09/04 10:27:32;;;;;;;3.13;1.77;;;31.90;96.20;;;;;;4991522;28;20045;-57
2023/09/04 10:30:05;;;;;;;4.85;2.40;;;32.10;98.00;;;;;;4973630;28;20049;-52
2023/09/04 10:32:33;;;;;;;3.92;2.42;;;32.00;95.70;;;;;;4991119;28;20097;-52
2023/09/04 10:34:59;;;;;;;4.47;2.30;;;31.90;95.80;;;;;;4991046;28;20030;-48
2023/09/04 10:37:29;;;;;;;4.80;2.42;;;31.90;97.40;;;;;;4991229;28;20046;-52
2023/09/04 10:39:56;;;;;;;4.13;2.28;;;32.20;96.70;;;;;;4991515;28;20026;-44
2023/09/04 10:42:23;;;;;;;3.08;2.05;;;32.10;95.60;;;;;;4991073;28;20027;-44
2023/09/04 10:44:51;;;;;;;9.48;2.70;;;32.30;96.90;;;;;;4991054;28;20084;-45
2023/09/04 10:47:17;;;;;;;3.55;1.92;;;32.60;95.30;;;;;;4991041;28;20109;-45
2023/09/04 10:49:44;;;;;;;3.08;2.00;;;32.60;96.30;;;;;;4990849;28;20037;-49
2023/09/04 10:52:11;;;;;;;3.15;2.17;;;32.30;96.70;;;;;;4990669;28;20080;-47
2023/09/04 10:54:37;;;;;;;3.30;2.22;;;32.30;96.50;;;;;;4991022;28;20026;-56
2023/09/04 10:57:07;;;;;;;3.92;2.13;;;32.40;95.90;;;;;;4990264;28;20496;-50
2023/09/04 10:59:52;;;;;;;3.95;2.05;;;32.20;95.70;;;;;;4990957;28;20476;-47
2023/09/04 11:02:32;;;;;;;4.05;2.20;;;32.20;96.90;;;;;;4990687;28;20022;-52
2023/09/04 11:05:01;;;;;;;3.65;2.33;;;32.40;96.60;;;;;;4990790;28;20105;-51
2023/09/04 11:07:34;;;;;;;4.32;2.38;;;32.40;96.30;;;;;;4990637;28;20503;-53
2023/09/04 11:10:32;;;;;;;3.17;1.80;;;32.30;95.10;;;;;;4990828;28;20033;-52
2023/09/04 11:12:58;;;;;;;3.17;2.00;;;32.30;95.70;;;;;;4990730;28;20390;-52
2023/09/04 11:15:26;;;;;;;3.40;2.03;;;32.50;96.50;;;;;;4990466;28;20038;-45
2023/09/04 11:17:52;;;;;;;4.55;2.17;;;32.30;95.90;;;;;;4990690;28;20074;-51
2023/09/04 11:20:24;;;;;;;2.78;1.98;;;32.60;94.90;;;;;;4990830;28;20073;-49
2023/09/04 11:22:49;;;;;;;3.35;1.90;;;32.30;95.20;;;;;;4990433;28;20066;-54
2023/09/04 11:25:16;;;;;;;5.70;2.25;;;32.20;95.20;;;;;;4990938;28;20057;-55
2023/09/04 11:27:44;;;;;;;2.85;1.90;;;32.60;96.00;;;;;;4990484;28;20030;-52
2023/09/04 11:30:10;;;;;;;4.65;1.80;;;32.60;93.60;;;;;;4990842;28;20156;-54
2023/09/04 11:32:37;;;;;;;2.40;1.70;;;32.30;92.60;;;;;;4990561;28;20092;-49
2023/09/04 11:35:03;;;;;;;2.45;1.67;;;32.10;95.00;;;;;;4990629;28;20042;-55
2023/09/04 11:37:32;;;;;;;2.92;2.03;;;32.50;95.20;;;;;;4990409;28;20053;-53
2023/09/04 11:40:06;;;;;;;3.10;1.90;;;32.60;94.90;;;;;;4990571;28;20033;-48
2023/09/04 11:42:33;;;;;;;2.75;1.63;;;31.90;93.40;;;;;;4990755;28;20117;-49
2023/09/04 11:44:58;;;;;;;6.25;2.00;;;32.20;94.00;;;;;;4990677;28;20034;-53
2023/09/04 11:47:24;;;;;;;2.78;1.88;;;31.90;93.40;;;;;;4990670;28;20030;-49
2023/09/04 11:49:50;;;;;;;3.33;2.00;;;31.90;94.00;;;;;;4990269;28;20034;-45
2023/09/04 11:52:17;;;;;;;2.97;1.83;;;31.90;93.20;;;;;;4990331;28;20102;-48
2023/09/04 11:54:43;;;;;;;2.67;1.80;;;31.80;93.20;;;;;;4990382;28;20018;-46
2023/09/04 11:57:10;;;;;;;3.00;1.70;;;31.60;93.10;;;;;;4990164;28;20043;-51
2023/09/04 11:59:37;;;;;;;3.05;1.85;;;31.20;93.60;;;;;;4990451;28;20023;-45
2023/09/04 12:02:04;;;;;;;2.80;1.70;;;31.30;93.10;;;;;;4991001;28;20023;-53
2023/09/04 12:04:32;;;;;;;2.50;1.60;;;31.50;94.80;;;;;;4993969;28;20089;-50
2023/09/04 12:07:02;;;;;;;2.30;1.75;;;31.90;92.80;;;;;;4993877;28;20503;-48
2023/09/04 12:09:29;;;;;;;2.60;1.70;;;31.70;92.00;;;;;;4993913;28;20018;-52
2023/09/04 12:11:55;;;;;;;2.90;1.52;;;31.30;91.50;;;;;;4993647;28;20138;-47
2023/09/04 12:14:20;;;;;;;2.50;1.52;;;31.50;92.80;;;;;;4993794;28;20141;-46
2023/09/04 12:16:46;;;;;;;3.25;1.75;;;31.60;92.10;;;;;;4993565;28;20027;-46
2023/09/04 12:19:13;;;;;;;3.55;2.03;;;31.30;90.60;;;;;;4993557;28;20049;-48
2023/09/04 12:21:39;;;;;;;3.17;1.70;;;31.10;91.10;;;;;;4976160;28;20018;-45
2023/09/04 12:24:14;;;;;;;3.40;1.65;;;31.00;91.30;;;;;;4993702;28;20026;-53
2023/09/04 12:26:41;;;;;;;2.65;1.55;;;30.50;88.10;;;;;;4982204;28;20661;-46
2023/09/04 12:29:10;;;;;;;3.17;1.40;;;30.50;89.50;;;;;;4993552;28;20031;-54
2023/09/04 12:31:37;;;;;;;2.83;1.50;;;30.70;89.00;;;;;;4993650;28;20056;-48
2023/09/04 12:34:04;;;;;;;2.53;1.60;;;30.60;90.20;;;;;;4993615;28;20054;-49